Time;durP1;ratioP1;P1;durP2;ratioP2;P2;SDS_P1;SDS_P2;PMS_P1;PMS_P2;Temp;Humidity;BMP_temperature;BMP_pressure;BME280_temperature;BME280_humidity;BME280_pressure;Samples;Min_cycle;Max_cycle;Signal;HPM_P1;HPM_P2
2022/09/14 00:01:52;;;;;;;;;;;;;;;13.97;100.00;100978.75;5072314;28;20051;-37
2022/09/14 00:04:20;;;;;;;;;;;;;;;14.02;100.00;100975.78;5071972;28;19934;-37
2022/09/14 00:06:48;;;;;;;;;;;;;;;14.08;100.00;100973.69;5072491;28;19981;-36
2022/09/14 00:09:17;;;;;;;;;;;;;;;14.11;100.00;100965.47;5072034;28;20328;-38
2022/09/14 00:11:46;;;;;;;;;;;;;;;14.16;100.00;100958.06;5071631;28;19931;-30
2022/09/14 00:14:13;;;;;;;;;;;;;;;14.18;100.00;100959.41;5072206;28;19990;-32
2022/09/14 00:16:41;;;;;;;;;;;;;;;14.22;100.00;100966.00;5071330;28;19924;-38
2022/09/14 00:19:15;;;;;;;;;;;;;;;14.25;100.00;100956.13;5071921;28;19979;-38
2022/09/14 00:21:42;;;;;;;;;;;;;;;14.27;100.00;100956.63;5071840;28;20431;-36
2022/09/14 00:24:11;;;;;;;;;;;;;;;14.32;100.00;100956.50;5071601;28;19928;-31
2022/09/14 00:26:38;;;;;;;;;;;;;;;14.33;100.00;100950.56;5071685;28;19924;-31
2022/09/14 00:29:07;;;;;;;;;;;;;;;14.36;100.00;100951.91;5071969;28;20446;-32
2022/09/14 00:31:35;;;;;;;;;;;;;;;14.38;100.00;100952.41;5070551;28;19972;-33
2022/09/14 00:34:04;;;;;;;;;;;;;;;14.39;100.00;100952.06;5072169;28;20023;-36
2022/09/14 00:36:34;;;;;;;;;;;;;;;14.40;100.00;100945.34;5071574;28;19968;-34
2022/09/14 00:39:01;;;;;;;;;;;;;;;14.42;100.00;100943.03;5071278;28;19928;-31
2022/09/14 00:41:31;;;;;;;;;;;;;;;14.43;100.00;100935.44;5071263;28;19959;-34
2022/09/14 00:43:59;;;;;;;;;;;;;;;14.44;100.00;100948.34;5071694;28;20347;-34
2022/09/14 00:46:29;;;;;;;;;;;;;;;14.42;100.00;100940.22;5070902;28;19967;-37
2022/09/14 00:48:59;;;;;;;;;;;;;;;14.42;100.00;100933.78;5071985;28;19925;-37
2022/09/14 00:51:27;;;;;;;;;;;;;;;14.38;100.00;100930.78;5071451;28;20342;-31
2022/09/14 00:53:55;;;;;;;;;;;;;;;14.37;100.00;100931.94;5050624;28;19982;-33
2022/09/14 00:56:23;;;;;;;;;;;;;;;14.34;100.00;100926.97;5062109;28;19933;-31
2022/09/14 00:58:51;;;;;;;;;;;;;;;14.34;100.00;100931.75;5070064;28;19974;-34
2022/09/14 01:01:19;;;;;;;;;;;;;;;14.34;100.00;100931.75;5071510;28;20304;-31
2022/09/14 01:03:48;;;;;;;;;;;;;;;14.32;100.00;100934.06;5071449;28;19932;-32
2022/09/14 01:06:19;;;;;;;;;;;;;;;14.29;100.00;100927.09;5070712;28;19928;-31
2022/09/14 01:08:56;;;;;;;;;;;;;;;14.27;100.00;100932.19;5071252;28;19967;-31
2022/09/14 01:11:32;;;;;;;;;;;;;;;14.27;100.00;100922.97;5057625;28;20515;-31
2022/09/14 01:14:04;;;;;;;;;;;;;;;14.25;100.00;100914.03;5070713;28;19970;-31
2022/09/14 01:16:35;;;;;;;;;;;;;;;14.22;100.00;100912.69;5071462;28;19924;-36
2022/09/14 01:19:10;;;;;;;;;;;;;;;14.21;100.00;100910.19;5071259;28;20015;-40
2022/09/14 01:21:40;;;;;;;;;;;;;;;14.18;100.00;100911.69;5055874;28;19924;-32
2022/09/14 01:24:16;;;;;;;;;;;;;;;14.17;100.00;100915.66;5071327;28;19928;-33
2022/09/14 01:26:58;;;;;;;;;;;;;;;14.17;100.00;100914.81;5056340;28;19924;-35
2022/09/14 01:29:29;;;;;;;;;;;;;;;14.16;100.00;100915.97;5067222;28;19974;-34
2022/09/14 01:31:59;;;;;;;;;;;;;;;14.14;100.00;100911.50;5056321;28;20387;-33
2022/09/14 01:34:31;;;;;;;;;;;;;;;14.13;100.00;100920.25;5065627;28;19982;-35
2022/09/14 01:37:02;;;;;;;;;;;;;;;14.11;100.00;100900.09;5071273;28;20028;-29
2022/09/14 01:39:31;;;;;;;;;;;;;;;14.11;100.00;100908.50;5071022;28;19932;-34
2022/09/14 01:42:00;;;;;;;;;;;;;;;14.09;100.00;100894.81;5052253;28;19945;-40
2022/09/14 01:44:31;;;;;;;;;;;;;;;14.08;100.00;100893.16;5070851;28;19928;-38
2022/09/14 01:47:01;;;;;;;;;;;;;;;14.08;100.00;100883.91;5071281;28;19929;-32
2022/09/14 01:49:31;;;;;;;;;;;;;;;14.06;100.00;100883.38;5061300;28;19970;-40
2022/09/14 01:52:01;;;;;;;;;;;;;;;14.04;100.00;100877.28;5071190;28;19929;-37
2022/09/14 01:54:31;;;;;;;;;;;;;;;14.02;100.00;100880.41;5069692;28;19963;-38
2022/09/14 01:57:01;;;;;;;;;;;;;;;14.01;100.00;100873.13;5070166;28;20290;-35
2022/09/14 01:59:32;;;;;;;;;;;;;;;14.01;100.00;100881.53;5070781;28;19924;-40
2022/09/14 02:02:02;;;;;;;;;;;;;;;13.99;100.00;100878.22;5071104;28;19981;-39
2022/09/14 02:04:34;;;;;;;;;;;;;;;14.00;100.00;100879.06;5070702;28;19930;-40
2022/09/14 02:07:02;;;;;;;;;;;;;;;13.99;100.00;100869.81;5074557;28;19970;-39
2022/09/14 02:09:30;;;;;;;;;;;;;;;13.99;100.00;100867.00;5073382;28;19955;-41
2022/09/14 02:11:59;;;;;;;;;;;;;;;14.00;100.00;100860.25;5054952;28;19948;-35
2022/09/14 02:14:27;;;;;;;;;;;;;;;14.03;100.00;100853.16;5069217;28;20324;-39
2022/09/14 02:16:56;;;;;;;;;;;;;;;14.05;100.00;100848.88;5073712;28;19964;-39
2022/09/14 02:19:25;;;;;;;;;;;;;;;14.07;100.00;100857.00;5074161;28;19939;-37
2022/09/14 02:21:53;;;;;;;;;;;;;;;14.10;100.00;100854.38;5074458;28;20347;-40
2022/09/14 02:24:20;;;;;;;;;;;;;;;14.12;100.00;100856.84;5073683;28;19959;-35
2022/09/14 02:26:50;;;;;;;;;;;;;;;14.16;100.00;100851.44;5056157;28;19931;-32
2022/09/14 02:29:18;;;;;;;;;;;;;;;14.18;100.00;100857.53;5073999;28;19955;-32
2022/09/14 02:31:55;;;;;;;;;;;;;;;14.21;100.00;100845.66;5073447;28;19971;-38
2022/09/14 02:34:29;;;;;;;;;;;;;;;14.24;100.00;100847.81;5073980;28;20464;-33
2022/09/14 02:37:00;;;;;;;;;;;;;;;14.26;100.00;100848.31;5074341;28;19928;-31
2022/09/14 02:39:35;;;;;;;;;;;;;;;14.28;100.00;100834.78;5073683;28;19970;-36
2022/09/14 02:42:08;;;;;;;;;;;;;;;14.30;100.00;100835.28;5073750;28;20377;-37
2022/09/14 02:44:41;;;;;;;;;;;;;;;14.30;100.00;100833.31;5073673;28;19955;-32
2022/09/14 02:47:14;;;;;;;;;;;;;;;14.33;100.00;100840.25;5073771;28;19932;-32
2022/09/14 02:49:48;;;;;;;;;;;;;;;14.34;100.00;100833.50;5074050;28;19928;-31
2022/09/14 02:52:18;;;;;;;;;;;;;;;14.36;100.00;100834.00;5073440;28;20320;-34
2022/09/14 02:54:50;;;;;;;;;;;;;;;14.35;100.00;100830.38;5073571;28;19954;-31
2022/09/14 02:57:17;;;;;;;;;;;;;;;14.38;100.00;100828.91;5072500;28;19978;-32
2022/09/14 02:59:45;;;;;;;;;;;;;;;14.38;100.00;100826.09;5071065;28;20022;-31
2022/09/14 03:02:12;;;;;;;;;;;;;;;14.38;100.00;100818.50;5071914;28;19929;-32
2022/09/14 03:04:41;;;;;;;;;;;;;;;14.38;100.00;100820.47;5072065;28;19928;-32
2022/09/14 03:07:09;;;;;;;;;;;;;;;14.37;100.00;100810.41;5071391;28;20293;-31
2022/09/14 03:09:37;;;;;;;;;;;;;;;14.35;100.00;100813.53;5072929;28;20332;-31
2022/09/14 03:12:05;;;;;;;;;;;;;;;14.34;100.00;100811.88;5067686;28;19925;-32
2022/09/14 03:14:36;;;;;;;;;;;;;;;14.33;100.00;100809.38;5072620;28;19924;-31
2022/09/14 03:17:04;;;;;;;;;;;;;;;14.32;100.00;100805.75;5072050;28;19936;-36
2022/09/14 03:19:31;;;;;;;;;;;;;;;14.31;100.00;100803.28;5072392;28;20373;-30
2022/09/14 03:21:59;;;;;;;;;;;;;;;14.30;100.00;100810.03;5072889;28;19970;-31
2022/09/14 03:24:28;;;;;;;;;;;;;;;14.29;100.00;100806.41;5073161;28;20482;-31
2022/09/14 03:26:55;;;;;;;;;;;;;;;14.29;100.00;100805.56;5072333;28;19925;-32
2022/09/14 03:29:23;;;;;;;;;;;;;;;14.28;100.00;100803.91;5071559;28;19925;-31
2022/09/14 03:31:50;;;;;;;;;;;;;;;14.27;100.00;100800.28;5071084;28;19931;-33
2022/09/14 03:34:18;;;;;;;;;;;;;;;14.27;100.00;100805.06;5072243;28;19928;-31
2022/09/14 03:36:45;;;;;;;;;;;;;;;14.28;100.00;100804.75;5072769;28;20439;-34
2022/09/14 03:39:13;;;;;;;;;;;;;;;14.27;100.00;100796.66;5072426;28;19929;-36
2022/09/14 03:41:42;;;;;;;;;;;;;;;14.27;100.00;100796.66;5071930;28;20022;-39
2022/09/14 03:44:10;;;;;;;;;;;;;;;14.27;100.00;100791.84;5072791;28;19932;-34
2022/09/14 03:46:37;;;;;;;;;;;;;;;14.28;100.00;100792.69;5073193;28;19925;-39
2022/09/14 03:49:05;;;;;;;;;;;;;;;14.28;100.00;100784.25;5072171;28;19967;-33
2022/09/14 03:51:33;;;;;;;;;;;;;;;14.27;100.00;100789.06;5057336;28;19932;-40
2022/09/14 03:54:01;;;;;;;;;;;;;;;14.28;100.00;100789.88;5072627;28;19925;-31
2022/09/14 03:56:28;;;;;;;;;;;;;;;14.28;100.00;100787.91;5072199;28;20400;-32
2022/09/14 03:58:57;;;;;;;;;;;;;;;14.30;100.00;100796.00;5072322;28;19929;-33
2022/09/14 04:01:25;;;;;;;;;;;;;;;14.30;100.00;100785.59;5072578;28;19924;-37
2022/09/14 04:03:52;;;;;;;;;;;;;;;14.32;100.00;100783.28;5071412;28;19928;-35
2022/09/14 04:06:20;;;;;;;;;;;;;;;14.35;100.00;100784.63;5072398;28;19986;-32
2022/09/14 04:08:48;;;;;;;;;;;;;;;14.36;100.00;100781.50;5071286;28;20332;-39
2022/09/14 04:11:16;;;;;;;;;;;;;;;14.39;100.00;100780.00;5072356;28;19931;-39
2022/09/14 04:13:44;;;;;;;;;;;;;;;14.39;100.00;100783.63;5072096;28;19925;-35
2022/09/14 04:16:14;;;;;;;;;;;;;;;14.40;100.00;100776.88;5071573;28;19978;-34
2022/09/14 04:18:42;;;;;;;;;;;;;;;14.41;100.00;100777.72;5071615;28;19944;-37
2022/09/14 04:21:14;;;;;;;;;;;;;;;14.43;100.00;100778.22;5072143;28;19954;-41
2022/09/14 04:23:41;;;;;;;;;;;;;;;14.46;100.00;100784.00;5071399;28;19978;-38
2022/09/14 04:26:29;;;;;;;;;;;;;;;14.49;100.00;100782.53;5061637;28;19994;-38
2022/09/14 04:28:57;;;;;;;;;;;;;;;14.51;100.00;100774.63;5071343;28;19929;-39
2022/09/14 04:31:26;;;;;;;;;;;;;;;14.53;100.00;100780.72;5070793;28;19928;-36
2022/09/14 04:33:55;;;;;;;;;;;;;;;14.56;100.00;100774.47;5071812;28;20023;-38
2022/09/14 04:36:26;;;;;;;;;;;;;;;14.59;100.00;100765.34;5072138;28;19925;-38
2022/09/14 04:38:55;;;;;;;;;;;;;;;14.60;100.00;100764.19;5071008;28;19924;-30
2022/09/14 04:41:23;;;;;;;;;;;;;;;14.61;100.00;100762.22;5071051;28;19924;-31
2022/09/14 04:43:52;;;;;;;;;;;;;;;14.61;100.00;100763.06;5070784;28;19975;-31
2022/09/14 04:46:20;;;;;;;;;;;;;;;14.61;100.00;100759.41;5071958;28;19978;-31
2022/09/14 04:48:50;;;;;;;;;;;;;;;14.62;100.00;100758.25;5071683;28;19978;-33
2022/09/14 04:51:19;;;;;;;;;;;;;;;14.62;100.00;100758.25;5070615;28;19978;-31
2022/09/14 04:53:48;;;;;;;;;;;;;;;14.60;100.00;100750.16;5070673;28;19928;-33
2022/09/14 04:56:17;;;;;;;;;;;;;;;14.59;100.00;100753.31;5069496;28;19928;-33
2022/09/14 04:58:45;;;;;;;;;;;;;;;14.59;100.00;100756.13;5069429;28;19936;-32
2022/09/14 05:01:19;;;;;;;;;;;;;;;14.57;100.00;100759.28;5065406;28;19982;-31
2022/09/14 05:03:47;;;;;;;;;;;;;;;14.57;100.00;100762.06;5070755;28;19979;-37
2022/09/14 05:06:16;;;;;;;;;;;;;;;14.59;100.00;100764.56;5069892;28;20058;-37
2022/09/14 05:08:44;;;;;;;;;;;;;;;14.61;100.00;100756.59;5070814;28;20389;-36
2022/09/14 05:11:14;;;;;;;;;;;;;;;14.62;100.00;100747.84;5071028;28;19932;-37
2022/09/14 05:13:41;;;;;;;;;;;;;;;14.64;100.00;100756.78;5070181;28;19933;-33
2022/09/14 05:16:17;;;;;;;;;;;;;;;14.67;100.00;100744.06;5070163;28;20440;-33
2022/09/14 05:18:45;;;;;;;;;;;;;;;14.67;100.00;100742.09;5070794;28;19924;-34
2022/09/14 05:21:13;;;;;;;;;;;;;;;14.67;100.00;100750.50;5069847;28;19971;-32
2022/09/14 05:23:42;;;;;;;;;;;;;;;14.68;100.00;100752.16;5071087;28;19928;-29
2022/09/14 05:26:10;;;;;;;;;;;;;;;14.68;100.00;100752.16;5069663;28;19960;-37
2022/09/14 05:28:38;;;;;;;;;;;;;;;14.69;100.00;100748.19;5068613;28;19928;-40
2022/09/14 05:31:06;;;;;;;;;;;;;;;14.70;100.00;100744.25;5069184;28;19963;-36
2022/09/14 05:33:34;;;;;;;;;;;;;;;14.72;100.00;100744.75;5069241;28;19925;-39
2022/09/14 05:36:02;;;;;;;;;;;;;;;14.75;100.00;100746.06;5069831;28;19935;-32
2022/09/14 05:38:30;;;;;;;;;;;;;;;14.76;100.00;100742.94;5070051;28;19954;-35
2022/09/14 05:40:59;;;;;;;;;;;;;;;14.77;100.00;100732.53;5071037;28;19924;-30
2022/09/14 05:43:27;;;;;;;;;;;;;;;14.79;100.00;100747.84;5069456;28;19971;-33
2022/09/14 05:45:55;;;;;;;;;;;;;;;14.79;100.00;100736.63;5073836;28;20393;-37
2022/09/14 05:48:22;;;;;;;;;;;;;;;14.81;100.00;100748.34;5070851;28;19929;-37
2022/09/14 05:50:57;;;;;;;;;;;;;;;14.82;100.00;100747.19;5074009;28;19928;-42
2022/09/14 05:53:24;;;;;;;;;;;;;;;14.85;100.00;100742.09;5073795;28;19925;-32
2022/09/14 05:56:00;;;;;;;;;;;;;;;14.87;100.00;100743.41;5072930;28;19932;-37
2022/09/14 05:58:27;;;;;;;;;;;;;;;14.89;100.00;100755.16;5073713;28;20382;-37
2022/09/14 06:00:55;;;;;;;;;;;;;;;14.92;100.00;100756.47;5073600;28;19990;-39
2022/09/14 06:03:22;;;;;;;;;;;;;;;14.95;100.00;100747.38;5049470;28;20409;-34
2022/09/14 06:05:53;;;;;;;;;;;;;;;14.98;100.00;100755.16;5073716;28;20001;-42
2022/09/14 06:08:21;;;;;;;;;;;;;;;15.01;100.00;100752.47;5072551;28;19967;-33
2022/09/14 06:10:49;;;;;;;;;;;;;;;15.06;100.00;100754.31;5073545;28;19978;-38
2022/09/14 06:13:18;;;;;;;;;;;;;;;15.10;100.00;100747.69;5063837;28;19936;-38
2022/09/14 06:15:45;;;;;;;;;;;;;;;15.14;100.00;100748.69;5073026;28;19982;-36
2022/09/14 06:18:13;;;;;;;;;;;;;;;15.20;100.00;100740.06;5071635;28;20390;-37
2022/09/14 06:20:49;;;;;;;;;;;;;;;15.26;100.00;100741.53;5073641;28;19986;-42
2022/09/14 06:23:16;;;;;;;;;;;;;;;15.30;100.00;100734.94;5071791;28;20423;-35
2022/09/14 06:25:44;;;;;;;;;;;;;;;15.33;100.00;100737.06;5073246;28;19925;-32
2022/09/14 06:28:11;;;;;;;;;;;;;;;15.39;100.00;100734.88;5072347;28;19958;-32
2022/09/14 06:30:43;;;;;;;;;;;;;;;15.44;100.00;100735.53;5072757;28;20230;-35
2022/09/14 06:33:11;;;;;;;;;;;;;;;15.49;100.00;100731.72;5073405;28;19932;-40
2022/09/14 06:35:39;;;;;;;;;;;;;;;15.56;100.00;100734.06;5073997;28;19928;-35
2022/09/14 06:38:07;;;;;;;;;;;;;;;15.63;100.00;100742.81;5071096;28;20458;-38
2022/09/14 06:40:35;;;;;;;;;;;;;;;15.71;100.00;100747.59;5072751;28;19929;-32
2022/09/14 06:43:02;;;;;;;;;;;;;;;15.78;100.00;100740.28;5073040;28;20385;-32
2022/09/14 06:45:31;;;;;;;;;;;;;;;15.89;100.00;100737.91;5068198;28;19924;-32
2022/09/14 06:48:00;;;;;;;;;;;;;;;15.99;100.00;100740.31;5073434;28;19924;-31
2022/09/14 06:50:27;;;;;;;;;;;;;;;16.11;100.00;100740.44;5072622;28;19947;-31
2022/09/14 06:52:55;;;;;;;;;;;;;;;16.25;100.00;100742.19;5073019;28;19966;-33
2022/09/14 06:55:22;;;;;;;;;;;;;;;16.38;100.00;100746.75;5073642;28;20344;-34
2022/09/14 06:57:50;;;;;;;;;;;;;;;16.50;100.00;100752.47;5073201;28;19942;-33
2022/09/14 07:00:18;;;;;;;;;;;;;;;16.60;100.00;100751.22;5073576;28;19928;-33
2022/09/14 07:02:46;;;;;;;;;;;;;;;16.70;100.00;100750.88;5073567;28;19982;-32
2022/09/14 07:05:18;;;;;;;;;;;;;;;16.78;100.00;100744.34;5072651;28;19928;-31
2022/09/14 07:07:45;;;;;;;;;;;;;;;16.85;100.00;100745.44;5073514;28;20451;-31
2022/09/14 07:10:13;;;;;;;;;;;;;;;16.93;100.00;100746.53;5073633;28;19933;-31
2022/09/14 07:12:40;;;;;;;;;;;;;;;16.97;100.00;100749.50;5072734;28;19925;-31
2022/09/14 07:15:08;;;;;;;;;;;;;;;17.00;100.00;100749.59;5073084;28;20448;-31
2022/09/14 07:17:36;;;;;;;;;;;;;;;17.02;100.00;100747.25;5073586;28;20293;-31
2022/09/14 07:20:04;;;;;;;;;;;;;;;17.06;100.00;100744.59;5072009;28;19928;-36
2022/09/14 07:22:34;;;;;;;;;;;;;;;17.11;100.00;100752.84;5073585;28;20042;-32
2022/09/14 07:25:01;;;;;;;;;;;;;;;17.17;100.00;100757.09;5073031;28;19925;-33
2022/09/14 07:27:29;;;;;;;;;;;;;;;17.25;100.00;100758.19;5072691;28;19925;-32
2022/09/14 07:29:56;;;;;;;;;;;;;;;17.31;100.00;100749.16;5072740;28;19978;-32
2022/09/14 07:32:24;;;;;;;;;;;;;;;17.39;100.00;100747.41;5073183;28;20531;-37
2022/09/14 07:34:51;;;;;;;;;;;;;;;17.46;100.00;100753.31;5072247;28;19932;-38
2022/09/14 07:37:19;;;;;;;;;;;;;;;17.51;100.00;100751.09;5073228;28;19983;-38
2022/09/14 07:39:48;;;;;;;;;;;;;;;17.56;100.00;100753.72;5072183;28;19983;-36
2022/09/14 07:42:15;;;;;;;;;;;;;;;17.63;100.00;100757.94;5072680;28;19936;-37
2022/09/14 07:44:43;;;;;;;;;;;;;;;17.66;100.00;100757.28;5072781;28;19940;-36
2022/09/14 07:47:10;;;;;;;;;;;;;;;17.71;100.00;100760.69;5072299;28;20317;-43
2022/09/14 07:49:38;;;;;;;;;;;;;;;17.76;100.00;100752.03;5072995;28;19924;-36
2022/09/14 07:52:06;;;;;;;;;;;;;;;17.84;100.00;100753.06;5072835;28;19928;-36
2022/09/14 07:54:34;;;;;;;;;;;;;;;17.88;100.00;100746.38;5071864;28;19932;-38
2022/09/14 07:57:03;;;;;;;;;;;;;;;17.94;100.00;100741.34;5072642;28;19924;-37
2022/09/14 07:59:30;;;;;;;;;;;;;;;17.99;100.00;100738.25;5072473;28;19936;-39
2022/09/14 08:02:05;;;;;;;;;;;;;;;18.05;100.00;100748.16;5071781;28;19959;-32
2022/09/14 08:04:33;;;;;;;;;;;;;;;18.15;100.00;100746.88;5072172;28;19934;-33
2022/09/14 08:07:01;;;;;;;;;;;;;;;18.23;100.00;100741.09;5072448;28;19935;-35
2022/09/14 08:09:29;;;;;;;;;;;;;;;18.32;100.00;100745.81;5071688;28;19985;-36
2022/09/14 08:11:57;;;;;;;;;;;;;;;18.38;100.00;100750.88;5072247;28;19925;-33
2022/09/14 08:14:26;;;;;;;;;;;;;;;18.44;100.00;100749.44;5072992;28;20010;-34
2022/09/14 08:16:53;;;;;;;;;;;;;;;18.49;100.00;100748.38;5071655;28;20415;-32
2022/09/14 08:19:21;;;;;;;;;;;;;;;18.53;100.00;100752.97;5072753;28;20261;-35
2022/09/14 08:21:49;;;;;;;;;;;;;;;18.64;100.00;100742.00;5071523;28;20015;-32
2022/09/14 08:24:18;;;;;;;;;;;;;;;18.74;100.00;100737.88;5072126;28;19924;-34
2022/09/14 08:26:45;;;;;;;;;;;;;;;18.83;100.00;100735.72;5072083;28;20043;-33
2022/09/14 08:29:13;;;;;;;;;;;;;;;18.89;100.00;100737.13;5071478;28;20014;-32
2022/09/14 08:31:44;;;;;;;;;;;;;;;18.98;100.00;100740.63;5072172;28;20436;-33
2022/09/14 08:34:12;;;;;;;;;;;;;;;19.12;100.00;100741.03;5072346;28;20439;-43
2022/09/14 08:36:40;;;;;;;;;;;;;;;19.22;100.00;100751.00;5071497;28;19928;-32
2022/09/14 08:39:09;;;;;;;;;;;;;;;19.34;100.00;100730.34;5071575;28;19971;-36
2022/09/14 08:41:38;;;;;;;;;;;;;;;19.47;100.00;100734.72;5072221;28;19936;-32
2022/09/14 08:44:13;;;;;;;;;;;;;;;19.54;98.44;100732.97;5070953;28;19929;-32
2022/09/14 08:46:43;;;;;;;;;;;;;;;19.64;96.83;100736.44;5071672;28;20022;-35
2022/09/14 08:49:13;;;;;;;;;;;;;;;19.74;93.91;100738.75;5072047;28;20044;-33
2022/09/14 08:51:41;;;;;;;;;;;;;;;19.82;92.92;100737.72;5071011;28;19931;-32
2022/09/14 08:54:09;;;;;;;;;;;;;;;19.95;92.11;100730.81;5071763;28;19924;-32
2022/09/14 08:56:39;;;;;;;;;;;;;;;20.10;91.91;100724.28;5071873;28;19924;-32
2022/09/14 08:59:23;;;;;;;;;;;;;;;20.29;93.26;100718.69;5071099;28;19932;-32
2022/09/14 09:02:00;;;;;;;;;;;;;;;20.48;92.06;100723.63;5056581;28;20017;-33
2022/09/14 09:04:33;;;;;;;;;;;;;;;20.66;92.51;100723.19;5066456;28;19935;-32
2022/09/14 09:07:03;;;;;;;;;;;;;;;20.73;86.54;100727.03;5071559;28;19975;-32
2022/09/14 09:09:37;;;;;;;;;;;;;;;20.83;86.63;100709.41;5071681;28;20011;-34
2022/09/14 09:12:04;;;;;;;;;;;;;;;21.26;87.84;100713.97;5071001;28;19968;-33
2022/09/14 09:14:35;;;;;;;;;;;;;;;21.77;86.20;100716.56;5071530;28;19977;-32
2022/09/14 09:17:10;;;;;;;;;;;;;;;22.43;85.96;100718.09;5071912;28;19929;-38
2022/09/14 09:19:41;;;;;;;;;;;;;;;23.09;80.73;100713.75;5070852;28;20038;-33
2022/09/14 09:22:12;;;;;;;;;;;;;;;23.46;75.86;100707.25;5071351;28;20023;-33
2022/09/14 09:24:41;;;;;;;;;;;;;;;24.07;75.69;100709.50;5062618;28;19954;-36
2022/09/14 09:27:10;;;;;;;;;;;;;;;24.72;70.79;100711.59;5070428;28;20028;-32
2022/09/14 09:29:37;;;;;;;;;;;;;;;25.45;68.48;100712.34;5070890;28;20366;-33
2022/09/14 09:32:14;;;;;;;;;;;;;;;26.05;61.29;100720.22;5070885;28;19982;-34
2022/09/14 09:35:04;;;;;;;;;;;;;;;26.30;57.49;100711.66;5070470;28;19929;-33
2022/09/14 09:37:55;;;;;;;;;;;;;;;26.35;53.69;100719.84;5052978;28;19928;-34
2022/09/14 09:40:26;;;;;;;;;;;;;;;26.30;54.38;100718.19;5070395;28;19929;-35
2022/09/14 09:43:05;;;;;;;;;;;;;;;26.28;55.83;100712.03;5071116;28;19935;-37
2022/09/14 09:45:46;;;;;;;;;;;;;;;26.56;55.10;100713.25;5070935;28;19932;-38
2022/09/14 09:48:16;;;;;;;;;;;;;;;27.11;52.03;100704.94;5070514;28;19924;-33
2022/09/14 09:50:47;;;;;;;;;;;;;;;27.39;50.62;100709.69;5071019;28;19924;-36
2022/09/14 09:53:16;;;;;;;;;;;;;;;27.45;49.75;100702.28;5070678;28;19998;-35
2022/09/14 09:55:47;;;;;;;;;;;;;;;27.40;50.70;100703.53;5070884;28;20412;-39
2022/09/14 09:58:22;;;;;;;;;;;;;;;27.27;50.15;100701.56;5071017;28;20378;-44
2022/09/14 10:00:56;;;;;;;;;;;;;;;27.02;48.32;100702.50;5060828;28;19944;-40
2022/09/14 10:03:33;;;;;;;;;;;;;;;26.72;49.85;100696.44;5071104;28;19966;-36
2022/09/14 10:06:02;;;;;;;;;;;;;;;26.48;49.23;100706.72;5066958;28;19925;-33
2022/09/14 10:08:33;;;;;;;;;;;;;;;26.26;50.98;100703.03;5070235;28;19924;-34
2022/09/14 10:11:02;;;;;;;;;;;;;;;26.08;48.17;100702.25;5066283;28;19924;-30
2022/09/14 10:13:31;;;;;;;;;;;;;;;25.89;52.90;100699.78;5071083;28;20402;-37
2022/09/14 10:16:05;;;;;;;;;;;;;;;25.74;53.18;100696.94;5069701;28;20397;-35
2022/09/14 10:18:35;;;;;;;;;;;;;;;25.66;53.07;100688.72;5070883;28;20286;-35
2022/09/14 10:21:07;;;;;;;;;;;;;;;25.56;52.31;100690.34;5070284;28;20045;-34
2022/09/14 10:23:36;;;;;;;;;;;;;;;25.45;51.25;100697.22;5070465;28;19955;-34
2022/09/14 10:26:27;;;;;;;;;;;;;;;25.35;53.54;100696.00;5070670;28;19928;-32
2022/09/14 10:29:15;;;;;;;;;;;;;;;25.23;53.17;100690.63;5058628;28;20047;-38
2022/09/14 10:31:43;;;;;;;;;;;;;;;25.12;54.75;100692.66;5072858;28;20382;-38
2022/09/14 10:34:18;;;;;;;;;;;;;;;25.11;55.56;100685.31;5074219;28;20039;-33
2022/09/14 10:36:50;;;;;;;;;;;;;;;25.03;55.92;100696.69;5073384;28;19932;-34
2022/09/14 10:39:20;;;;;;;;;;;;;;;24.96;55.90;100690.16;5074525;28;20031;-39
2022/09/14 10:41:56;;;;;;;;;;;;;;;24.87;56.51;100693.34;5074128;28;19924;-40
2022/09/14 10:44:28;;;;;;;;;;;;;;;24.78;56.18;100695.72;5073712;28;20416;-42
2022/09/14 10:47:05;;;;;;;;;;;;;;;24.66;56.70;100693.22;5073700;28;20362;-39
2022/09/14 10:49:46;;;;;;;;;;;;;;;24.52;54.70;100682.56;5073474;28;19940;-40
2022/09/14 10:52:19;;;;;;;;;;;;;;;24.36;55.15;100674.31;5073676;28;20316;-34
2022/09/14 10:54:59;;;;;;;;;;;;;;;24.17;55.67;100677.41;5074049;28;20367;-42
2022/09/14 10:57:30;;;;;;;;;;;;;;;24.02;55.84;100673.59;5073053;28;19924;-33
2022/09/14 11:00:04;;;;;;;;;;;;;;;23.92;56.06;100667.84;5074101;28;19990;-33
2022/09/14 11:02:50;;;;;;;;;;;;;;;23.82;56.79;100665.69;5073327;28;20010;-44
2022/09/14 11:05:22;;;;;;;;;;;;;;;23.72;58.02;100664.41;5073280;28;19978;-38
2022/09/14 11:08:00;;;;;;;;;;;;;;;23.65;58.47;100662.31;5073653;28;19925;-36
2022/09/14 11:10:30;;;;;;;;;;;;;;;23.58;57.32;100661.44;5073806;28;19929;-39
2022/09/14 11:13:18;;;;;;;;;;;;;;;23.53;59.38;100662.59;5072449;28;19928;-34
2022/09/14 11:15:52;;;;;;;;;;;;;;;23.73;60.94;100663.19;5073495;28;19928;-36
2022/09/14 11:18:23;;;;;;;;;;;;;;;24.10;59.61;100673.69;5068324;28;19928;-32
2022/09/14 11:21:00;;;;;;;;;;;;;;;24.46;58.29;100672.72;5073981;28;20383;-39
2022/09/14 11:23:33;;;;;;;;;;;;;;;24.81;55.88;100672.09;5068420;28;19928;-33
2022/09/14 11:26:03;;;;;;;;;;;;;;;25.21;55.36;100670.22;5073141;28;19928;-36
2022/09/14 11:28:34;;;;;;;;;;;;;;;25.59;52.44;100665.81;5072809;28;19990;-33
2022/09/14 11:31:04;;;;;;;;;;;;;;;25.80;51.32;100673.63;5073333;28;19928;-37
2022/09/14 11:33:36;;;;;;;;;;;;;;;25.98;52.25;100677.34;5072299;28;19932;-37
2022/09/14 11:36:08;;;;;;;;;;;;;;;26.18;51.49;100675.66;5073520;28;19925;-34
2022/09/14 11:38:36;;;;;;;;;;;;;;;26.23;48.98;100674.44;5072066;28;19932;-33
2022/09/14 11:41:10;;;;;;;;;;;;;;;26.13;48.80;100678.13;5072572;28;19928;-33
2022/09/14 11:43:42;;;;;;;;;;;;;;;26.02;48.22;100675.25;5072536;28;19984;-33
2022/09/14 11:46:11;;;;;;;;;;;;;;;25.89;49.29;100668.34;5052192;28;19928;-34
2022/09/14 11:48:41;;;;;;;;;;;;;;;25.77;49.30;100672.44;5067661;28;19936;-42
2022/09/14 11:51:14;;;;;;;;;;;;;;;25.64;50.09;100672.00;5073085;28;19924;-39
2022/09/14 11:53:42;;;;;;;;;;;;;;;25.47;50.94;100675.59;5071999;28;19924;-32
2022/09/14 11:56:22;;;;;;;;;;;;;;;25.34;51.61;100671.50;5072759;28;19978;-32
2022/09/14 11:58:50;;;;;;;;;;;;;;;25.21;52.40;100675.94;5072378;28;19979;-36
2022/09/14 12:01:25;;;;;;;;;;;;;;;25.11;52.45;100669.00;5071659;28;19928;-36
2022/09/14 12:04:08;;;;;;;;;;;;;;;24.99;52.23;100675.06;5072172;28;19928;-33
2022/09/14 12:06:48;;;;;;;;;;;;;;;24.88;53.50;100674.16;5070412;28;20385;-38
2022/09/14 12:09:49;;;;;;;;;;;;;;;24.84;53.57;100671.28;5071877;28;19924;-40
2022/09/14 12:12:34;;;;;;;;;;;;;;;24.99;54.35;100667.31;5064242;28;19960;-37
2022/09/14 12:15:03;;;;;;;;;;;;;;;25.21;53.64;100664.53;5071199;28;19978;-37
2022/09/14 12:17:34;;;;;;;;;;;;;;;25.27;52.29;100665.78;5072315;28;20337;-36
2022/09/14 12:20:21;;;;;;;;;;;;;;;25.32;53.13;100668.25;5071646;28;20401;-36
2022/09/14 12:22:50;;;;;;;;;;;;;;;25.51;53.86;100667.88;5069398;28;19924;-39
2022/09/14 12:25:19;;;;;;;;;;;;;;;25.74;51.40;100662.63;5072094;28;19924;-33
2022/09/14 12:27:48;;;;;;;;;;;;;;;25.84;50.60;100666.69;5072179;28;20137;-37
2022/09/14 12:30:34;;;;;;;;;;;;;;;25.91;50.76;100660.16;5070718;28;19982;-37
2022/09/14 12:33:27;;;;;;;;;;;;;;;25.94;50.61;100670.78;5072252;28;19943;-39
2022/09/14 12:35:54;;;;;;;;;;;;;;;25.83;49.57;100659.34;5070848;28;19953;-32
2022/09/14 12:38:43;;;;;;;;;;;;;;;25.75;49.75;100663.44;5072013;28;19924;-36
2022/09/14 12:41:31;;;;;;;;;;;;;;;25.74;50.19;100665.47;5062579;28;20289;-33
2022/09/14 12:43:59;;;;;;;;;;;;;;;25.82;51.17;100668.31;5045045;28;19924;-33
2022/09/14 12:46:39;;;;;;;;;;;;;;;25.76;49.89;100658.53;5071787;28;19932;-32
2022/09/14 12:49:26;;;;;;;;;;;;;;;25.77;50.33;100666.72;5070383;28;19928;-33